KBGR 151453Z 18012KT 10SM FEW060 SCT120 BKN200 13/07 A3013 RMK AO2 SLP202 T01330067 58020